Aérodrome :
LOGIN :

S'inscrire | Disclaimer

   EN    FR    IT 

 










Légende :    VFR   VFR Marginal   IFR   IFR Intensif   IFR Très Intensif
Visi : 
Plafond : 
>= 8 km
>= 3000ft
5 à 8 km
1000 à 3000 ft
1500m à 5 km
500 à 1000 ft
800 à 1500m
200 à 500 ft
< 800m
< 200 ft
Symboles :   Orages  Brouillard  Fortes neiges  Fortes précipitations  Vent > 20 kt
SIGMETs :   Divers  Orages  Givrage  Turbulence  Onde Orograph.  Cendres Volcan.






- Altitude de l'aérodrome : 915 ft
- Code IATA : LUG


LSZA - Lugano

DERNIER METAR :
  • 101050Z AUTO 21002KT 9999 FEW060 OVC070 10/04 Q1022

METARs EXPIRÉS :
  • 101020Z AUTO VRB02KT 9999 BKN060 10/05 Q1023
  • 100950Z VRB01KT 9999 BKN055 BKN065 10/05 Q1023 NOSIG
  • 100920Z VRB03KT 9999 FEW050 BKN055 BKN065 10/05 Q1023 NOSIG
  • 100850Z VRB02KT 9999 FEW050 BKN055 BKN080 10/05 Q1022 NOSIG
  • 100820Z 01002KT 9999 FEW050 BKN055 OVC080 09/05 Q1022 NOSIG

TAF TAF LSZA
Valide du 10 à 09h jusqu'au 10 à 18h UTC


100825Z 1009/1018 VRB02KT 9999 SCT050 BKN060
PROB30
TEMPO 1016/1018 RA BKN030
ATIS : +41 22 417 40 88



MET'MAP, la Météo Aéronautique d'un coup d'oeil ! - Copyright ORBIFLY Décembre 2007 - Disclaimer

ORBIFLY MET'MAP TEAM :

Programmation & Développement : Alexandra Zaïnal
Sur une idée originale de : Baudouin d'Aumeries
Assistance à la programmation : Marc-Olivier Méhu
Soutien technique & logistique : Manuel Goepfert

Contact : metmap@orbifly.com




SOURCES & CREDITS :

   NOAA